Aviation Digital Data Service (ADDS)

Output produced by METARs form (0323 UTC 21 September 2017)
found at http://www.aviationweather.gov/adds/metars/
 
EGAA 210250Z AUTO 00000KT 5000 -RA SCT027/// BKN040/// BKN049/// 10/10 Q1009 RERA
TAF EGAA 202257Z 2100/2124 30005KT 9999 FEW008 SCT040 
     TEMPO 2100/2106 7000 RA -RADZ BKN008 
     PROB40 
     TEMPO 2100/2104 3000 +RA RADZ BKN002 
     PROB30 
     TEMPO 2106/2108 BKN008 
     PROB30 
     TEMPO 2115/2119 5000 +SHRA 
     BECMG 2121/2124 17010KT
       
EGPL 210250Z AUTO 00000KT 9999 NCD 07/07 Q1009
TAF EGPL 210204Z 2103/2112 VRB03KT 9999 SCT040 
     PROB40 2103/2107 2000 BR
       
EGUB 210250Z 19006KT 9999 BKN013 OVC023 15/13 Q1014 GRN
EGBB 210250Z 17008KT 9999 OVC010 14/13 Q1012
TAF EGBB 202300Z 2100/2124 18012KT 9999 SCT012 
     TEMPO 2100/2105 BKN006 
     PROB30 
     TEMPO 2100/2115 21015G25KT 
     TEMPO 2105/2115 6000 RA BKN006 
     PROB30 
     TEMPO 2107/2115 4000 RADZ BKN004 
     BECMG 2114/2117 27006KT
       
EGDM 210250Z AUTO 18003KT 9999 BKN011/// SCT031/// 14/13 Q1014
EGHH 202250Z 22008KT 9999 SCT006 BKN018 15/14 Q1016
TAF EGHH 202258Z 2100/2109 20012KT 9999 SCT018
       
EGGD 210250Z AUTO 18013KT 9999 BKN003/// OVC009/// //////TCU 13/13 Q1012
TAF EGGD 202252Z 2100/2124 19008KT 9999 BKN008 
     TEMPO 2100/2111 4000 RADZ BKN004 
     PROB30 
     TEMPO 2100/2111 19015G25KT 
     BECMG 2110/2112 27010KT 
     BECMG 2112/2115 NSW SCT030
       
EGVN 210250Z 19007KT 9999 FEW012 SCT023 BKN032 14/12 Q1013 WHT TEMPO FEW023 BLU
TAF EGVN 210133Z 2103/2203 18008KT 9999 SCT010 
     PROB30 
     TEMPO 2103/2109 FEW010 
     TEMPO 2109/2116 4000 RA 
     BECMG 2114/2116 FEW025
       
EGAA 210250Z AUTO 00000KT 5000 -RA SCT027/// BKN040/// BKN049/// 10/10 Q1009 RERA
TAF EGAA 202257Z 2100/2124 30005KT 9999 FEW008 SCT040 
     TEMPO 2100/2106 7000 RA -RADZ BKN008 
     PROB40 
     TEMPO 2100/2104 3000 +RA RADZ BKN002 
     PROB30 
     TEMPO 2106/2108 BKN008 
     PROB30 
     TEMPO 2115/2119 5000 +SHRA 
     BECMG 2121/2124 17010KT
       
EGBB 210250Z 17008KT 9999 OVC010 14/13 Q1012
TAF EGBB 202300Z 2100/2124 18012KT 9999 SCT012 
     TEMPO 2100/2105 BKN006 
     PROB30 
     TEMPO 2100/2115 21015G25KT 
     TEMPO 2105/2115 6000 RA BKN006 
     PROB30 
     TEMPO 2107/2115 4000 RADZ BKN004 
     BECMG 2114/2117 27006KT
       
EGCC 210250Z AUTO 18006KT 110V220 9999 OVC009 14/13 Q1010 TEMPO BKN010
TAF AMD EGCC 210159Z 2101/2206 17010KT 9999 SCT015 
     TEMPO 2101/2105 BKN008 
     PROB30 
     TEMPO 2101/2115 20016G26KT 
     TEMPO 2105/2115 6000 RA BKN010 
     PROB30 
     TEMPO 2105/2115 4000 RADZ BKN005 
     BECMG 2112/2115 27009KT
       
EGCN 210250Z 18008KT 9999 OVC010 15/14 Q1012
TAF AMD EGCN 210233Z 2102/2124 18012KT 9999 FEW012 BKN035 
     TEMPO 2102/2106 8000 -RA BKN008 
     BECMG 2110/2113 8000 -RA BKN010 
     PROB30 
     TEMPO 2110/2113 18015G25KT 4000 RADZ 
     BECMG 2113/2116 26008KT 9999 NSW FEW015 SCT030 
     TEMPO 2113/2116 5000 RA 
     PROB30 2122/2124 8000
       
EGDM 210250Z AUTO 18003KT 9999 BKN011/// SCT031/// 14/13 Q1014
EGDR 210250Z 19022KT 5000 RA SCT004 BKN008 OVC012 15/14 Q1010 YLO2
EGDX 210250Z AUTO 14006KT 9999 OVC009/// 15/14 Q1011
EGDY 210250Z 17007KT 6000 -DZ BKN007 OVC030 14/13 Q1013 GRN
EGFF 210250Z AUTO 17009KT 9999 OVC011 15/14 Q1012
TAF AMD EGFF 202359Z 2100/2124 19010KT 9999 SCT012 
     TEMPO 2100/2103 BKN009 
     TEMPO 2100/2114 20017G27KT 
     TEMPO 2103/2114 6000 RA BKN009 
     PROB30 
     TEMPO 2106/2114 4000 RADZ BKN004 
     BECMG 2107/2110 28010KT 
     PROB40 
     TEMPO 2112/2114 BKN012
       
EGGD 210250Z AUTO 18013KT 9999 BKN003/// OVC009/// //////TCU 13/13 Q1012
TAF EGGD 202252Z 2100/2124 19008KT 9999 BKN008 
     TEMPO 2100/2111 4000 RADZ BKN004 
     PROB30 
     TEMPO 2100/2111 19015G25KT 
     BECMG 2110/2112 27010KT 
     BECMG 2112/2115 NSW SCT030
       
EGGP 210250Z AUTO 16011KT 9999 OVC010/// 15/13 Q1009
TAF AMD EGGP 210129Z 2101/2124 16010KT 9999 SCT012 
     TEMPO 2101/2104 BKN012 
     PROB30 
     TEMPO 2101/2113 20016G26KT 
     TEMPO 2104/2113 6000 RA BKN012 
     PROB30 
     TEMPO 2105/2113 4000 RADZ BKN005 
     BECMG 2110/2113 27010KT 
     BECMG 2118/2121 21005KT
       
EGGW 210250Z AUTO 18008KT 150V220 9999 OVC012 14/12 Q1014
TAF AMD EGGW 210302Z 2103/2124 19010KT 9999 SCT016 
     TEMPO 2103/2106 BKN012 
     PROB30 
     TEMPO 2109/2113 20015G25KT 
     TEMPO 2115/2122 8000 -RA BKN011 
     PROB30 
     TEMPO 2116/2121 4000 RA BKN007 
     BECMG 2117/2120 26006KT 
     BECMG 2122/2124 6000
       
EGHH 202250Z 22008KT 9999 SCT006 BKN018 15/14 Q1016
TAF EGHH 202258Z 2100/2109 20012KT 9999 SCT018
       
EGHI 202150Z 19006KT 150V220 9999 BKN032 15/11 Q1016
EGJB 210250Z 19013KT 9999 FEW012 14/12 Q1015
TAF EGJB 210202Z 2103/2112 17021KT 9999 FEW012 
     BECMG 2106/2109 BKN012 
     TEMPO 2109/2112 5000 RA BKN010
       
EGJJ 210250Z AUTO 19012KT 9999 FEW011/// 14/12 Q1015 RE
TAF EGJJ 210202Z 2103/2112 17019KT 9999 FEW012 
     BECMG 2107/2110 BKN012 
     TEMPO 2110/2112 5000 RA BKN010
       
EGKK 210250Z 18004KT 9999 BKN037 15/12 Q1015
TAF EGKK 202311Z 2100/2206 19004KT 9999 SCT030 
     PROB40 2103/2108 6000 
     TEMPO 2115/2122 6000 RA BKN008 
     BECMG 2118/2121 30010KT 
     BECMG 2122/2201 7000 
     TEMPO 2201/2206 3000 BR 
     PROB30 2203/2206 0400 FG BKN000
       
EGLC 210250Z AUTO 21007KT 170V240 9999 BKN037 OVC044 16/12 Q1015
TAF EGLC 210200Z 2103/2112 20008KT 9999 SCT035
       
EGLL 210250Z AUTO 19008KT 9999 BKN036 15/12 Q1015
TAF EGLL 202255Z 2100/2206 19006KT 9999 BKN030 
     TEMPO 2114/2121 8000 -RA BKN012 
     PROB30 
     TEMPO 2115/2119 4500 RA BKN008 
     BECMG 2122/2201 7000 
     TEMPO 2201/2206 3500 BR VCFG 
     PROB30 
     TEMPO 2203/2206 0400 FG BKN000
       
EGMC 210250Z 17007KT 9999 FEW030 BKN036 14/10 Q1016
TAF EGMC 210200Z 2103/2112 18007KT 9999 SCT035
       
EGMD 210250Z AUTO 20013KT 9999 SCT020/// BKN025/// BKN031/// 16/13 Q1017
TAF EGMD 210200Z 2103/2112 20013KT 9999 FEW028
       
EGNJ 210250Z AUTO 19012KT 7000 BKN004/// OVC007/// 14/14 Q1012
TAF AMD EGNJ 210255Z 2103/2112 18015KT 9999 FEW010 SCT040 
     TEMPO 2103/2108 4500 -RA BKN008 
     PROB30 
     TEMPO 2103/2106 2500 DZ BR BKN004
       
EGNM 210250Z 16005KT 140V210 9999 BKN010 13/13 Q1011
TAF EGNM 202252Z 2100/2124 19008KT 9999 BKN010 
     TEMPO 2100/2109 4000 RADZ BKN006 
     PROB40 
     TEMPO 2103/2107 1400 BR BKN001 
     PROB30 
     TEMPO 2109/2114 18015G25KT 6000 RA BKN008 
     BECMG 2112/2115 26010KT SCT025 
     TEMPO 2114/2117 6000 RA BKN008
       
EGNS 210250Z 36010KT 260V030 3000 +RA FEW011 BKN016 OVC020 12/11 Q1006
EGNT 210250Z VRB03KT 9999 SCT018 14/13 Q1008
TAF EGNT 202255Z 2100/2124 17004KT 9999 SCT035 
     PROB30 
     TEMPO 2100/2109 8000 -RA 
     BECMG 2109/2112 18014KT 8000 -RA BKN010 
     PROB30 
     TEMPO 2109/2112 4000 RADZ 
     BECMG 2112/2115 26008KT 9999 NSW FEW015 SCT030 
     TEMPO 2112/2115 5000 RA
       
EGNX 210250Z 19010KT 9999 BKN009 14/13 Q1012
TAF AMD EGNX 210250Z 2102/2124 20012KT 9999 BKN012 
     TEMPO 2102/2105 BKN009 
     PROB30 
     TEMPO 2102/2115 21016G26KT 
     PROB30 
     TEMPO 2102/2105 7000 RA 
     BECMG 2105/2107 SCT016 
     TEMPO 2107/2116 6000 RA BKN010 
     PROB30 
     TEMPO 2109/2115 4000 RADZ BKN005 
     BECMG 2112/2115 28009KT
       
EGOM 210250Z AUTO 20011KT 9999 BKN008/// SCT024/// BKN160/// 13/13 Q1007
EGOP 210250Z AUTO 18030KT 5000 // FEW008/// BKN014/// 16/15 Q1009
EGOS 210250Z AUTO 16012KT 9999 OVC008/// 15/13 Q1010
EGOV 210250Z AUTO 16030KT 6000 -RA BKN011/// BKN019/// 16/14 Q1006
EGPA 210250Z AUTO 34006KT 9999 BKN003/// 11/10 Q1007
TAF EGPA 210204Z 2103/2112 34007KT 9999 SCT008 OVC015 
     TEMPO 2103/2112 6000 -RADZ BKN008 
     PROB40 
     TEMPO 2103/2112 2500 RADZ BKN003
       
EGPB 210250Z AUTO 34008KT 9000 OVC001/// 11/11 Q1006
TAF EGPB 210204Z 2103/2112 35006KT 9999 SCT008 OVC015 
     BECMG 2103/2106 16012KT 
     TEMPO 2103/2112 6000 RA -RADZ BKN005 
     PROB40 
     TEMPO 2103/2112 2000 RADZ BKN003 
     BECMG 2107/2109 33005KT
       
EGPC 210250Z AUTO 30006KT 9999 BKN034/// 10/10 Q1007
TAF EGPC 210204Z 2103/2112 33007KT 9999 SCT010 OVC015 
     TEMPO 2103/2112 6000 RA BKN008 
     PROB40 
     TEMPO 2103/2112 3000 RADZ BKN004
       
EGPD 210250Z AUTO 33009KT 9999 OVC010 11/11 Q1007 TEMPO BKN008
TAF AMD EGPD 210207Z 2103/2124 31007KT 9999 BKN015 
     TEMPO 2103/2118 6000 -RA BKN007 
     PROB40 
     TEMPO 2103/2118 2000 RADZ BKN003
       
EGPE 210250Z 00000KT 9000 SCT008 BKN025 10/09 Q1008
TAF EGPE 210204Z 2103/2112 04005KT 9999 SCT008 OVC020 
     TEMPO 2103/2112 6000 -RADZ BKN008 
     PROB40 
     TEMPO 2103/2112 3000 RADZ BR BKN003
       
EGPF 210250Z AUTO 24003KT 9999 -RA NCD 11/10 Q1008
TAF EGPF 202255Z 2100/2124 27008KT 9999 FEW015 SCT030 
     TEMPO 2100/2112 6000 -RA 
     PROB30 
     TEMPO 2100/2103 4000 RA BKN012 
     TEMPO 2103/2109 4000 RA 
     PROB30 
     TEMPO 2103/2109 BKN008
       
EGPH 210250Z VRB02KT 9999 -RA FEW012 BKN048 12/11 Q1008
TAF AMD EGPH 210207Z 2103/2124 23007KT 9999 SCT040 
     PROB40 
     TEMPO 2105/2111 4000 RADZ BKN008
       
EGPI 210250Z AUTO 36003KT 9999 NCD 10/09 Q1008 RERA
TAF EGPI 210157Z 2103/2112 31009KT 9999 FEW015 SCT030 
     TEMPO 2103/2108 8000 -RA 
     PROB30 
     TEMPO 2103/2106 4500 RA BKN014
       
EGPK 210250Z 00000KT 9999 BKN035 11/10 Q1008
TAF EGPK 202255Z 2100/2124 29008KT 9999 FEW015 SCT030 
     TEMPO 2100/2112 6000 -RA 
     PROB30 
     TEMPO 2100/2103 4000 RA BKN012 
     TEMPO 2103/2109 4000 RA BKN012 
     PROB30 
     TEMPO 2103/2109 BKN008
       
EGPL 210250Z AUTO 00000KT 9999 NCD 07/07 Q1009
TAF EGPL 210204Z 2103/2112 VRB03KT 9999 SCT040 
     PROB40 2103/2107 2000 BR
       
EGPM 210250Z AUTO VRB03KT 5000 -DZ OVC001/// 11/11 Q1006 RERA
TAF EGPM 210204Z 2103/2112 35003KT 9999 SCT008 OVC015 
     BECMG 2103/2106 16010KT 
     TEMPO 2103/2112 6000 RA -RADZ BKN005 
     PROB40 
     TEMPO 2103/2112 2000 RADZ BKN002 
     BECMG 2107/2109 33005KT
       
EGPO 210250Z AUTO 00000KT 9999 SCT022/// 09/08 Q1009
TAF EGPO 210204Z 2103/2112 30003KT 9999 BKN040 
     PROB30 
     TEMPO 2103/2109 6000 -RA BKN012
       
EGPU 210250Z AUTO 33007KT 9999 NCD 10/08 Q1008
EGQK 210250Z AUTO 33005KT 9999 -DZ FEW006/// BKN024/// 10/10 Q1008
EGQL 210250Z 25006KT 9999 -SHRA BKN080 13/12 Q1007 BLU
TAF EGQL 210138Z 2103/2112 25008KT 9999 FEW012 BKN025 
     TEMPO 2103/2111 4000 RA -DZ SCT008 BKN020 
     PROB30 
     TEMPO 2105/2111 3000 +RA DZ SCT005 BKN008
       
EGQM 210250Z AUTO 17007KT 9000 BR OVC170/// 14/13 Q1008
EGQS 210250Z 36007KT 9000 -DZ SCT005 OVC018 11/10 Q1008 YLO1
TAF EGQS 210137Z 2103/2121 35010KT 8000 -RA BKN007 OVC015 
     TEMPO 2103/2116 2000 RA DZ SCT004 BKN006 
     PROB40 
     TEMPO 2103/2116 1500 +RA +DZ SCT002 BKN004 
     BECMG 2116/2119 NSW SCT025
       
EGSH 210250Z AUTO 18006KT 140V230 9999 FEW020/// BKN025/// OVC036/// 14/12 Q1015
TAF EGSH 210200Z 2103/2112 19007KT 9999 SCT027
       
EGSS 210250Z AUTO 17008KT 9999 OVC037 14/12 Q1015
TAF EGSS 202256Z 2100/2206 18010KT 9999 SCT030 
     PROB30 
     TEMPO 2100/2103 9000 -RA 
     PROB30 
     TEMPO 2109/2113 19015G25KT 
     TEMPO 2116/2123 8000 -RA BKN012 
     PROB30 
     TEMPO 2117/2122 4000 RA BKN008 
     BECMG 2118/2121 26006KT 
     BECMG 2123/2202 6000 
     TEMPO 2202/2206 2000 BR 
     PROB30 2203/2206 0800 FG BKN001
       
EGTE 210120Z 18011KT 8000 -RA FEW005 BKN010 14/13 Q1013
EGUB 210250Z 19006KT 9999 BKN013 OVC023 15/13 Q1014 GRN
EGUL 210256Z AUTO 16008KT 9999 BKN024 OVC036 14/14 A2996 RMK AO2 DZB30E50 CIG 024V036 SLP149 P0000 60000 T01400140 57007 $
TAF EGUL 202001Z 2020/2202 20012KT 9999 SCT020 BKN030 610808 QNH2997INS 
     TEMPO 2103/2108 20015G25KT 9000 -SHRA 
     BECMG 2107/2108 20015G25KT 9999 SCT018 BKN030 610809 510003 QNH2994INS 
     BECMG 2112/2113 21010G20KT 9999 SCT020 BKN030 610808 QNH2991INS 
     BECMG 2117/2118 22010G20KT 9000 -SHRA SCT010 BKN015 610808 QNH2997INS 
     BECMG 2121/2122 26009KT 9999 NSW FEW012 SCT020 QNH2999INS TX19/2112Z TN07/2106Z
       
EGUN 210256Z AUTO 17009KT 9999 BKN023 OVC036 14/14 A2996 RMK AO2 RAE39DZB39E40 CIG 023V036 SLP149 P0000 60000 T01400140 57007 $
TAF AMD EGUN 210143Z 2101/2202 20012KT 9999 SCT020 BKN030 610808 QNH2997INS 
     TEMPO 2103/2108 20010G15KT 9000 -SHRA 
     BECMG 2107/2108 20015G25KT 9999 SCT018 BKN030 610809 510003 QNH2994INS 
     BECMG 2112/2113 21010G20KT 9999 SCT020 BKN030 610808 QNH2991INS 
     BECMG 2117/2118 22010G20KT 9000 -SHRA SCT010 BKN015 610808 QNH2997INS 
     BECMG 2121/2122 26009KT 9999 NSW FEW012 SCT020 QNH2999INS TX19/2112Z TN07/2106Z
       
EGUW 210250Z AUTO 18008KT 9999 OVC028/// 14/11 Q1015
EGVA 210317Z AUTO 19008KT 9999 BKN014 BKN019 OVC040 14/12 A2992 RMK AO2 RAE01 CIG 014V019 SLP134 $
EGVN 210250Z 19007KT 9999 FEW012 SCT023 BKN032 14/12 Q1013 WHT TEMPO FEW023 BLU
TAF EGVN 210133Z 2103/2203 18008KT 9999 SCT010 
     PROB30 
     TEMPO 2103/2109 FEW010 
     TEMPO 2109/2116 4000 RA 
     BECMG 2114/2116 FEW025
       
EGVO 210250Z AUTO 18009KT 9999 BKN030/// 15/12 Q1014
TAF EGVO 210159Z 2103/2115 20010KT 9999 BKN030 
     TEMPO 2103/2109 BKN020 
     BECMG 2109/2112 BKN016 
     TEMPO 2111/2115 6000 RA BKN010
       
EGVP 210250Z AUTO 18008KT 9999 // BKN021/// BKN027/// 15/12 Q1014
EGWU 210250Z AUTO 18004KT 9999 // OVC032/// 15/12 Q1015
TAF EGWU 201624Z 2018/2112 20008KT 9999 SCT035
       
EGXC 210250Z 18006KT 7000 -RADZ FEW006 OVC009 13/13 Q1013 GRN
TAF EGXC 210138Z 2103/2121 19010KT 9999 BKN020 
     TEMPO 2103/2108 7000 -RA BKN008 
     PROB40 
     TEMPO 2103/2104 4000 -RADZ 
     BECMG 2108/2111 SCT030 
     BECMG 2113/2115 BKN020 
     PROB40 
     TEMPO 2115/2119 7000 -RADZ BKN010 
     BECMG 2119/2121 SCT030
       
EGXE 210250Z AUTO 13007KT 9999 BKN014/// 14/13 Q1010
EGXP 210250Z AUTO 18008KT 9999 // OVC006/// 14/13 Q1012
EGXS 210250Z AUTO 17008KT 3600 // BKN003/// SCT020/// 13/12 Q1013
EGXT 210250Z AUTO 17008KT 9999 BKN012/// 13/12 Q1013 RERA
EGXU 210250Z AUTO 17010KT 9999 // SCT017/// BKN080/// 14/13 Q1010
EGXV 210250Z AUTO 19007KT 6000 BR BKN006/// BKN070/// 14/13 Q1012 RERA
EGXW 210250Z 18011KT 9999 OVC010 14/13 Q1013 GRN
TAF EGXW 210118Z 2103/2121 20012KT 9999 BKN010 
     TEMPO 2103/2106 7000 -RADZ 
     PROB30 
     TEMPO 2103/2106 4000 RADZ SCT005 
     BECMG 2106/2109 BKN030 
     PROB30 
     TEMPO 2109/2113 SCT016 
     BECMG 2113/2115 -RA BKN018 
     TEMPO 2115/2118 6000 RA BKN010 
     BECMG 2117/2120 26010KT NSW FEW020
       
EGXZ 210250Z AUTO 14008KT 9999 OVC016/// 14/13 Q1010
EGYD 210250Z AUTO 18008KT 9999 // BKN008/// 13/13 Q1013
EGYM 210250Z AUTO 17011KT 9999 FEW021/// OVC031/// 14/11 Q1014
EGYP 210250Z 28012KT CAVOK 02/02 Q1002 BLU
TAF EGYP 210109Z 2103/2121 26012KT 9999 SCT025 
     BECMG 2106/2109 32020KT 
     BECMG 2109/2112 27015G30KT
       
EGFF 210250Z AUTO 17009KT 9999 OVC011 15/14 Q1012
TAF AMD EGFF 202359Z 2100/2124 19010KT 9999 SCT012 
     TEMPO 2100/2103 BKN009 
     TEMPO 2100/2114 20017G27KT 
     TEMPO 2103/2114 6000 RA BKN009 
     PROB30 
     TEMPO 2106/2114 4000 RADZ BKN004 
     BECMG 2107/2110 28010KT 
     PROB40 
     TEMPO 2112/2114 BKN012
       
EGLC 210250Z AUTO 21007KT 170V240 9999 BKN037 OVC044 16/12 Q1015
TAF EGLC 210200Z 2103/2112 20008KT 9999 SCT035
       
EGXC 210250Z 18006KT 7000 -RADZ FEW006 OVC009 13/13 Q1013 GRN
TAF EGXC 210138Z 2103/2121 19010KT 9999 BKN020 
     TEMPO 2103/2108 7000 -RA BKN008 
     PROB40 
     TEMPO 2103/2104 4000 -RADZ 
     BECMG 2108/2111 SCT030 
     BECMG 2113/2115 BKN020 
     PROB40 
     TEMPO 2115/2119 7000 -RADZ BKN010 
     BECMG 2119/2121 SCT030
       
EGYD 210250Z AUTO 18008KT 9999 // BKN008/// 13/13 Q1013
EGDR 210250Z 19022KT 5000 RA SCT004 BKN008 OVC012 15/14 Q1010 YLO2
EGPD 210250Z AUTO 33009KT 9999 OVC010 11/11 Q1007 TEMPO BKN008
TAF AMD EGPD 210207Z 2103/2124 31007KT 9999 BKN015 
     TEMPO 2103/2118 6000 -RA BKN007 
     PROB40 
     TEMPO 2103/2118 2000 RADZ BKN003
       
EGNX 210250Z 19010KT 9999 BKN009 14/13 Q1012
TAF AMD EGNX 210250Z 2102/2124 20012KT 9999 BKN012 
     TEMPO 2102/2105 BKN009 
     PROB30 
     TEMPO 2102/2115 21016G26KT 
     PROB30 
     TEMPO 2102/2105 7000 RA 
     BECMG 2105/2107 SCT016 
     TEMPO 2107/2116 6000 RA BKN010 
     PROB30 
     TEMPO 2109/2115 4000 RADZ BKN005 
     BECMG 2112/2115 28009KT
       
EGPH 210250Z VRB02KT 9999 -RA FEW012 BKN048 12/11 Q1008
TAF AMD EGPH 210207Z 2103/2124 23007KT 9999 SCT040 
     PROB40 
     TEMPO 2105/2111 4000 RADZ BKN008
       
EGTE 210120Z 18011KT 8000 -RA FEW005 BKN010 14/13 Q1013
EGVA 210317Z AUTO 19008KT 9999 BKN014 BKN019 OVC040 14/12 A2992 RMK AO2 RAE01 CIG 014V019 SLP134 $
EGKK 210250Z 18004KT 9999 BKN037 15/12 Q1015
TAF EGKK 202311Z 2100/2206 19004KT 9999 SCT030 
     PROB40 2103/2108 6000 
     TEMPO 2115/2122 6000 RA BKN008 
     BECMG 2118/2121 30010KT 
     BECMG 2122/2201 7000 
     TEMPO 2201/2206 3000 BR 
     PROB30 2203/2206 0400 FG BKN000
       
EGPF 210250Z AUTO 24003KT 9999 -RA NCD 11/10 Q1008
TAF EGPF 202255Z 2100/2124 27008KT 9999 FEW015 SCT030 
     TEMPO 2100/2112 6000 -RA 
     PROB30 
     TEMPO 2100/2103 4000 RA BKN012 
     TEMPO 2103/2109 4000 RA 
     PROB30 
     TEMPO 2103/2109 BKN008
       
EGLL 210250Z AUTO 19008KT 9999 BKN036 15/12 Q1015
TAF EGLL 202255Z 2100/2206 19006KT 9999 BKN030 
     TEMPO 2114/2121 8000 -RA BKN012 
     PROB30 
     TEMPO 2115/2119 4500 RA BKN008 
     BECMG 2122/2201 7000 
     TEMPO 2201/2206 3500 BR VCFG 
     PROB30 
     TEMPO 2203/2206 0400 FG BKN000
       
EGNJ 210250Z AUTO 19012KT 7000 BKN004/// OVC007/// 14/14 Q1012
TAF AMD EGNJ 210255Z 2103/2112 18015KT 9999 FEW010 SCT040 
     TEMPO 2103/2108 4500 -RA BKN008 
     PROB30 
     TEMPO 2103/2106 2500 DZ BR BKN004
       
EGPE 210250Z 00000KT 9000 SCT008 BKN025 10/09 Q1008
TAF EGPE 210204Z 2103/2112 04005KT 9999 SCT008 OVC020 
     TEMPO 2103/2112 6000 -RADZ BKN008 
     PROB40 
     TEMPO 2103/2112 3000 RADZ BR BKN003
       
EGPI 210250Z AUTO 36003KT 9999 NCD 10/09 Q1008 RERA
TAF EGPI 210157Z 2103/2112 31009KT 9999 FEW015 SCT030 
     TEMPO 2103/2108 8000 -RA 
     PROB30 
     TEMPO 2103/2106 4500 RA BKN014
       
EGQK 210250Z AUTO 33005KT 9999 -DZ FEW006/// BKN024/// 10/10 Q1008
EGPA 210250Z AUTO 34006KT 9999 BKN003/// 11/10 Q1007
TAF EGPA 210204Z 2103/2112 34007KT 9999 SCT008 OVC015 
     TEMPO 2103/2112 6000 -RADZ BKN008 
     PROB40 
     TEMPO 2103/2112 2500 RADZ BKN003
       
EGUL 210256Z AUTO 16008KT 9999 BKN024 OVC036 14/14 A2996 RMK AO2 DZB30E50 CIG 024V036 SLP149 P0000 60000 T01400140 57007 $
TAF EGUL 202001Z 2020/2202 20012KT 9999 SCT020 BKN030 610808 QNH2997INS 
     TEMPO 2103/2108 20015G25KT 9000 -SHRA 
     BECMG 2107/2108 20015G25KT 9999 SCT018 BKN030 610809 510003 QNH2994INS 
     BECMG 2112/2113 21010G20KT 9999 SCT020 BKN030 610808 QNH2991INS 
     BECMG 2117/2118 22010G20KT 9000 -SHRA SCT010 BKN015 610808 QNH2997INS 
     BECMG 2121/2122 26009KT 9999 NSW FEW012 SCT020 QNH2999INS TX19/2112Z TN07/2106Z
       
EGNM 210250Z 16005KT 140V210 9999 BKN010 13/13 Q1011
TAF EGNM 202252Z 2100/2124 19008KT 9999 BKN010 
     TEMPO 2100/2109 4000 RADZ BKN006 
     PROB40 
     TEMPO 2103/2107 1400 BR BKN001 
     PROB30 
     TEMPO 2109/2114 18015G25KT 6000 RA BKN008 
     BECMG 2112/2115 26010KT SCT025 
     TEMPO 2114/2117 6000 RA BKN008
       
EGXE 210250Z AUTO 13007KT 9999 BKN014/// 14/13 Q1010
EGQL 210250Z 25006KT 9999 -SHRA BKN080 13/12 Q1007 BLU
TAF EGQL 210138Z 2103/2112 25008KT 9999 FEW012 BKN025 
     TEMPO 2103/2111 4000 RA -DZ SCT008 BKN020 
     PROB30 
     TEMPO 2105/2111 3000 +RA DZ SCT005 BKN008
       
EGXU 210250Z AUTO 17010KT 9999 // SCT017/// BKN080/// 14/13 Q1010
EGGP 210250Z AUTO 16011KT 9999 OVC010/// 15/13 Q1009
TAF AMD EGGP 210129Z 2101/2124 16010KT 9999 SCT012 
     TEMPO 2101/2104 BKN012 
     PROB30 
     TEMPO 2101/2113 20016G26KT 
     TEMPO 2104/2113 6000 RA BKN012 
     PROB30 
     TEMPO 2105/2113 4000 RADZ BKN005 
     BECMG 2110/2113 27010KT 
     BECMG 2118/2121 21005KT
       
EGQS 210250Z 36007KT 9000 -DZ SCT005 OVC018 11/10 Q1008 YLO1
TAF EGQS 210137Z 2103/2121 35010KT 8000 -RA BKN007 OVC015 
     TEMPO 2103/2116 2000 RA DZ SCT004 BKN006 
     PROB40 
     TEMPO 2103/2116 1500 +RA +DZ SCT002 BKN004 
     BECMG 2116/2119 NSW SCT025
       
EGGW 210250Z AUTO 18008KT 150V220 9999 OVC012 14/12 Q1014
TAF AMD EGGW 210302Z 2103/2124 19010KT 9999 SCT016 
     TEMPO 2103/2106 BKN012 
     PROB30 
     TEMPO 2109/2113 20015G25KT 
     TEMPO 2115/2122 8000 -RA BKN011 
     PROB30 
     TEMPO 2116/2121 4000 RA BKN007 
     BECMG 2117/2120 26006KT 
     BECMG 2122/2124 6000
       
EGMD 210250Z AUTO 20013KT 9999 SCT020/// BKN025/// BKN031/// 16/13 Q1017
TAF EGMD 210200Z 2103/2112 20013KT 9999 FEW028
       
EGCC 210250Z AUTO 18006KT 110V220 9999 OVC009 14/13 Q1010 TEMPO BKN010
TAF AMD EGCC 210159Z 2101/2206 17010KT 9999 SCT015 
     TEMPO 2101/2105 BKN008 
     PROB30 
     TEMPO 2101/2115 20016G26KT 
     TEMPO 2105/2115 6000 RA BKN010 
     PROB30 
     TEMPO 2105/2115 4000 RADZ BKN005 
     BECMG 2112/2115 27009KT
       
EGYM 210250Z AUTO 17011KT 9999 FEW021/// OVC031/// 14/11 Q1014
EGUN 210256Z AUTO 17009KT 9999 BKN023 OVC036 14/14 A2996 RMK AO2 RAE39DZB39E40 CIG 023V036 SLP149 P0000 60000 T01400140 57007 $
TAF AMD EGUN 210143Z 2101/2202 20012KT 9999 SCT020 BKN030 610808 QNH2997INS 
     TEMPO 2103/2108 20010G15KT 9000 -SHRA 
     BECMG 2107/2108 20015G25KT 9999 SCT018 BKN030 610809 510003 QNH2994INS 
     BECMG 2112/2113 21010G20KT 9999 SCT020 BKN030 610808 QNH2991INS 
     BECMG 2117/2118 22010G20KT 9000 -SHRA SCT010 BKN015 610808 QNH2997INS 
     BECMG 2121/2122 26009KT 9999 NSW FEW012 SCT020 QNH2999INS TX19/2112Z TN07/2106Z
       
EGNT 210250Z VRB03KT 9999 SCT018 14/13 Q1008
TAF EGNT 202255Z 2100/2124 17004KT 9999 SCT035 
     PROB30 
     TEMPO 2100/2109 8000 -RA 
     BECMG 2109/2112 18014KT 8000 -RA BKN010 
     PROB30 
     TEMPO 2109/2112 4000 RADZ 
     BECMG 2112/2115 26008KT 9999 NSW FEW015 SCT030 
     TEMPO 2112/2115 5000 RA
       
EGWU 210250Z AUTO 18004KT 9999 // OVC032/// 15/12 Q1015
TAF EGWU 201624Z 2018/2112 20008KT 9999 SCT035
       
EGSH 210250Z AUTO 18006KT 140V230 9999 FEW020/// BKN025/// OVC036/// 14/12 Q1015
TAF EGSH 210200Z 2103/2112 19007KT 9999 SCT027
       
EGVO 210250Z AUTO 18009KT 9999 BKN030/// 15/12 Q1014
TAF EGVO 210159Z 2103/2115 20010KT 9999 BKN030 
     TEMPO 2103/2109 BKN020 
     BECMG 2109/2112 BKN016 
     TEMPO 2111/2115 6000 RA BKN010
       
EGPK 210250Z 00000KT 9999 BKN035 11/10 Q1008
TAF EGPK 202255Z 2100/2124 29008KT 9999 FEW015 SCT030 
     TEMPO 2100/2112 6000 -RA 
     PROB30 
     TEMPO 2100/2103 4000 RA BKN012 
     TEMPO 2103/2109 4000 RA BKN012 
     PROB30 
     TEMPO 2103/2109 BKN008
       
EGXP 210250Z AUTO 18008KT 9999 // OVC006/// 14/13 Q1012
EGPM 210250Z AUTO VRB03KT 5000 -DZ OVC001/// 11/11 Q1006 RERA
TAF EGPM 210204Z 2103/2112 35003KT 9999 SCT008 OVC015 
     BECMG 2103/2106 16010KT 
     TEMPO 2103/2112 6000 RA -RADZ BKN005 
     PROB40 
     TEMPO 2103/2112 2000 RADZ BKN002 
     BECMG 2107/2109 33005KT
       
EGOS 210250Z AUTO 16012KT 9999 OVC008/// 15/13 Q1010
EGHI 202150Z 19006KT 150V220 9999 BKN032 15/11 Q1016
EGMC 210250Z 17007KT 9999 FEW030 BKN036 14/10 Q1016
TAF EGMC 210200Z 2103/2112 18007KT 9999 SCT035
       
EGDX 210250Z AUTO 14006KT 9999 OVC009/// 15/14 Q1011
EGSS 210250Z AUTO 17008KT 9999 OVC037 14/12 Q1015
TAF EGSS 202256Z 2100/2206 18010KT 9999 SCT030 
     PROB30 
     TEMPO 2100/2103 9000 -RA 
     PROB30 
     TEMPO 2109/2113 19015G25KT 
     TEMPO 2116/2123 8000 -RA BKN012 
     PROB30 
     TEMPO 2117/2122 4000 RA BKN008 
     BECMG 2118/2121 26006KT 
     BECMG 2123/2202 6000 
     TEMPO 2202/2206 2000 BR 
     PROB30 2203/2206 0800 FG BKN001
       
EGPO 210250Z AUTO 00000KT 9999 SCT022/// 09/08 Q1009
TAF EGPO 210204Z 2103/2112 30003KT 9999 BKN040 
     PROB30 
     TEMPO 2103/2109 6000 -RA BKN012
       
EGPB 210250Z AUTO 34008KT 9000 OVC001/// 11/11 Q1006
TAF EGPB 210204Z 2103/2112 35006KT 9999 SCT008 OVC015 
     BECMG 2103/2106 16012KT 
     TEMPO 2103/2112 6000 RA -RADZ BKN005 
     PROB40 
     TEMPO 2103/2112 2000 RADZ BKN003 
     BECMG 2107/2109 33005KT
       
EGPU 210250Z AUTO 33007KT 9999 NCD 10/08 Q1008
EGXZ 210250Z AUTO 14008KT 9999 OVC016/// 14/13 Q1010
EGOV 210250Z AUTO 16030KT 6000 -RA BKN011/// BKN019/// 16/14 Q1006
EGXW 210250Z 18011KT 9999 OVC010 14/13 Q1013 GRN
TAF EGXW 210118Z 2103/2121 20012KT 9999 BKN010 
     TEMPO 2103/2106 7000 -RADZ 
     PROB30 
     TEMPO 2103/2106 4000 RADZ SCT005 
     BECMG 2106/2109 BKN030 
     PROB30 
     TEMPO 2109/2113 SCT016 
     BECMG 2113/2115 -RA BKN018 
     TEMPO 2115/2118 6000 RA BKN010 
     BECMG 2117/2120 26010KT NSW FEW020
       
EGUW 210250Z AUTO 18008KT 9999 OVC028/// 14/11 Q1015
EGPC 210250Z AUTO 30006KT 9999 BKN034/// 10/10 Q1007
TAF EGPC 210204Z 2103/2112 33007KT 9999 SCT010 OVC015 
     TEMPO 2103/2112 6000 RA BKN008 
     PROB40 
     TEMPO 2103/2112 3000 RADZ BKN004
       
EGXT 210250Z AUTO 17008KT 9999 BKN012/// 13/12 Q1013 RERA
EGDY 210250Z 17007KT 6000 -DZ BKN007 OVC030 14/13 Q1013 GRN